Time;durP1;ratioP1;P1;durP2;ratioP2;P2;SDS_P1;SDS_P2;PMS_P1;PMS_P2;Temp;Humidity;BMP_temperature;BMP_pressure;BME280_temperature;BME280_humidity;BME280_pressure;Samples;Min_cycle;Max_cycle;Signal;HPM_P1;HPM_P2
2022/01/27 00:04:50;;;;;;;43.43;18.50;;;0.90;99.90;;;;;;10287967;28;20073;-82
2022/01/27 00:10:09;;;;;;;45.27;19.80;;;0.90;99.90;;;;;;10287568;28;20022;-83
2022/01/27 00:15:12;;;;;;;56.57;24.30;;;0.90;99.90;;;;;;10269452;28;20508;-82
2022/01/27 00:20:15;;;;;;;66.00;25.50;;;0.80;99.90;;;;;;10286845;28;20082;-82
2022/01/27 00:25:15;;;;;;;61.80;25.50;;;0.80;99.90;;;;;;10286566;28;20031;-83
2022/01/27 00:30:16;;;;;;;59.90;22.43;;;0.90;99.90;;;;;;10287519;28;20479;-82
2022/01/27 00:35:17;;;;;;;78.40;32.20;;;0.90;99.90;;;;;;10286570;28;20042;-82
2022/01/27 00:40:17;;;;;;;74.67;29.63;;;0.90;99.90;;;;;;10286424;28;20051;-82
2022/01/27 00:45:18;;;;;;;74.70;31.30;;;0.90;99.90;;;;;;10285910;28;20108;-84
2022/01/27 00:50:19;;;;;;;89.03;31.57;;;0.90;99.90;;;;;;10287082;28;20026;-84
2022/01/27 00:55:22;;;;;;;76.83;28.57;;;0.90;99.90;;;;;;10286003;28;20418;-82
2022/01/27 01:00:32;;;;;;;95.03;37.07;;;0.90;99.90;;;;;;10286411;28;20027;-81
2022/01/27 01:15:52;;;;;;;97.13;34.70;;;0.80;99.90;;;;;;10285116;28;20054;-85
2022/01/27 01:36:36;;;;;;;98.83;36.97;;;0.80;99.90;;;;;;10285492;28;20042;-84
2022/01/27 01:41:36;;;;;;;110.00;38.20;;;0.80;99.90;;;;;;10286004;28;20058;-86
2022/01/27 01:46:37;;;;;;;108.17;37.67;;;0.80;99.90;;;;;;10286430;28;20042;-85
2022/01/27 01:51:39;;;;;;;115.50;40.70;;;0.80;99.90;;;;;;10285001;28;20045;-85
2022/01/27 01:56:42;;;;;;;119.90;41.93;;;0.90;99.90;;;;;;10285010;28;20073;-84
2022/01/27 02:01:43;;;;;;;123.60;41.10;;;0.80;99.90;;;;;;10288248;28;20027;-82
2022/01/27 02:06:50;;;;;;;107.57;41.30;;;0.90;99.90;;;;;;10292608;28;20497;-83
2022/01/27 02:22:29;;;;;;;117.30;40.30;;;0.90;99.90;;;;;;10291390;28;20442;-82
2022/01/27 02:27:30;;;;;;;109.93;36.20;;;0.80;99.90;;;;;;10274448;28;20031;-83
2022/01/27 02:32:30;;;;;;;95.37;34.13;;;0.80;99.90;;;;;;10290518;28;20493;-82
2022/01/27 02:37:31;;;;;;;101.50;37.70;;;0.80;99.90;;;;;;10290885;28;20039;-86
2022/01/27 02:42:34;;;;;;;83.77;32.43;;;0.80;99.90;;;;;;10291288;28;20042;-83
2022/01/27 02:47:35;;;;;;;96.77;35.80;;;0.80;99.90;;;;;;10290815;28;20154;-84
2022/01/27 02:52:36;;;;;;;94.40;32.87;;;0.80;99.90;;;;;;10274002;28;20114;-83
2022/01/27 02:57:36;;;;;;;100.10;34.67;;;0.90;99.90;;;;;;10289647;28;20604;-82
2022/01/27 03:02:37;;;;;;;94.73;34.03;;;0.90;99.90;;;;;;10290840;28;20116;-83
2022/01/27 03:07:38;;;;;;;102.83;33.87;;;0.90;99.90;;;;;;10290304;28;20039;-83
2022/01/27 03:12:38;;;;;;;100.23;36.07;;;0.90;99.90;;;;;;10289230;28;20042;-85
2022/01/27 03:17:39;;;;;;;90.90;30.37;;;0.90;99.90;;;;;;10288905;28;20398;-85
2022/01/27 03:22:40;;;;;;;82.33;30.53;;;0.80;99.90;;;;;;10273328;28;20490;-82
2022/01/27 03:27:46;;;;;;;81.87;27.17;;;0.80;99.90;;;;;;10289398;28;20050;-83
2022/01/27 03:32:47;;;;;;;92.78;32.13;;;0.80;99.90;;;;;;10288375;28;20121;-84
2022/01/27 03:37:48;;;;;;;79.30;29.83;;;0.90;99.90;;;;;;10289042;28;20046;-84
2022/01/27 03:43:03;;;;;;;85.70;29.60;;;0.80;99.90;;;;;;10288963;28;20059;-83
2022/01/27 03:48:04;;;;;;;106.73;42.73;;;0.90;99.90;;;;;;10288894;28;20386;-83
2022/01/27 03:53:05;;;;;;;149.97;50.10;;;0.90;99.90;;;;;;10288495;28;20026;-84
2022/01/27 03:58:05;;;;;;;137.13;48.70;;;0.90;99.90;;;;;;10288377;28;20035;-83
2022/01/27 04:03:09;;;;;;;146.27;51.50;;;1.00;99.90;;;;;;10286899;28;20081;-82
2022/01/27 04:08:11;;;;;;;146.47;47.87;;;1.00;99.90;;;;;;10288559;28;20108;-82
2022/01/27 04:13:12;;;;;;;154.07;56.03;;;0.90;99.90;;;;;;10286894;28;20023;-84
2022/01/27 04:18:13;;;;;;;155.73;52.93;;;0.90;99.90;;;;;;10287217;28;20035;-83
2022/01/27 04:23:13;;;;;;;142.50;53.27;;;1.00;99.90;;;;;;10287670;28;20114;-83
2022/01/27 04:28:20;;;;;;;152.00;55.43;;;0.90;99.90;;;;;;10269035;28;20033;-84
2022/01/27 04:33:25;;;;;;;147.47;56.23;;;0.90;99.90;;;;;;10269415;28;20069;-82
2022/01/27 04:43:44;;;;;;;141.73;53.63;;;0.90;99.90;;;;;;10284838;28;20038;-81
2022/01/27 04:48:50;;;;;;;99.30;34.47;;;1.00;99.90;;;;;;10285285;28;20093;-81
2022/01/27 04:54:04;;;;;;;137.43;48.20;;;0.90;99.90;;;;;;10286015;28;20055;-82
2022/01/27 04:59:13;;;;;;;139.60;49.90;;;0.90;99.90;;;;;;10286578;28;20114;-83
2022/01/27 05:04:17;;;;;;;134.13;51.43;;;0.90;99.90;;;;;;10284589;28;20058;-83
2022/01/27 05:09:18;;;;;;;150.93;53.43;;;0.90;99.90;;;;;;10284157;28;20038;-85
2022/01/27 05:14:23;;;;;;;155.90;55.97;;;0.90;99.90;;;;;;10285917;28;20114;-87
2022/01/27 05:19:23;;;;;;;146.30;56.30;;;0.90;99.90;;;;;;10286842;28;20031;-85
2022/01/27 05:24:24;;;;;;;147.70;55.90;;;0.90;99.90;;;;;;10285740;28;20045;-82
2022/01/27 05:29:24;;;;;;;125.10;47.73;;;0.90;99.90;;;;;;10285746;28;20093;-83
2022/01/27 05:34:25;;;;;;;124.60;46.23;;;0.90;99.90;;;;;;10267674;28;20047;-86
2022/01/27 05:39:25;;;;;;;104.03;40.07;;;0.80;99.90;;;;;;10289524;28;20063;-84
2022/01/27 05:44:26;;;;;;;87.80;33.17;;;0.80;99.90;;;;;;10294932;28;20081;-83
2022/01/27 05:49:27;;;;;;;79.30;34.40;;;0.90;99.90;;;;;;10294076;28;20062;-82
2022/01/27 05:54:27;;;;;;;88.33;36.47;;;0.90;99.90;;;;;;10293321;28;20463;-82
2022/01/27 05:59:28;;;;;;;115.37;43.60;;;0.90;99.90;;;;;;10279928;28;20892;-84
2022/01/27 06:04:28;;;;;;;95.53;36.13;;;0.80;99.90;;;;;;10293873;28;20031;-83
2022/01/27 06:09:29;;;;;;;99.13;37.43;;;0.80;99.90;;;;;;10292882;28;20022;-83
2022/01/27 06:14:30;;;;;;;103.23;41.30;;;0.80;99.90;;;;;;10293072;28;20438;-83
2022/01/27 06:19:30;;;;;;;86.53;37.30;;;0.90;99.90;;;;;;10292396;28;20418;-82
2022/01/27 06:24:31;;;;;;;90.17;37.73;;;0.90;99.90;;;;;;10292426;28;20022;-83
2022/01/27 06:29:31;;;;;;;87.17;36.33;;;0.80;99.90;;;;;;10292146;28;20434;-82
2022/01/27 06:34:32;;;;;;;130.30;56.27;;;0.80;99.90;;;;;;10291638;28;20030;-84
2022/01/27 06:39:33;;;;;;;132.53;52.30;;;0.90;99.90;;;;;;10291428;28;20061;-84
2022/01/27 06:44:34;;;;;;;90.00;35.83;;;0.90;99.90;;;;;;10291929;28;20035;-85
2022/01/27 06:49:35;;;;;;;103.97;39.30;;;0.90;99.90;;;;;;10290709;28;20486;-82
2022/01/27 06:54:35;;;;;;;104.27;40.93;;;0.90;99.90;;;;;;10291437;28;20030;-82
2022/01/27 06:59:36;;;;;;;104.43;40.00;;;0.90;99.90;;;;;;10285597;28;20038;-82
2022/01/27 07:04:37;;;;;;;108.50;43.70;;;0.90;99.90;;;;;;10286820;28;20031;-84
2022/01/27 07:09:38;;;;;;;156.30;61.47;;;1.00;99.90;;;;;;10289942;28;20114;-83
2022/01/27 07:14:38;;;;;;;73.80;31.20;;;1.00;99.90;;;;;;10290315;28;20039;-81
2022/01/27 07:19:39;;;;;;;67.70;28.13;;;1.00;99.90;;;;;;10273367;28;20023;-83
2022/01/27 07:24:40;;;;;;;66.73;28.33;;;1.10;99.90;;;;;;10283821;28;20109;-87
2022/01/27 07:29:40;;;;;;;91.63;33.47;;;1.20;99.90;;;;;;10288103;28;20027;-87
2022/01/27 07:34:41;;;;;;;116.20;42.63;;;1.30;99.90;;;;;;10288559;28;20049;-83
2022/01/27 07:39:41;;;;;;;62.70;27.37;;;1.30;99.90;;;;;;10290001;28;20059;-83
2022/01/27 07:44:42;;;;;;;67.80;26.93;;;1.40;99.90;;;;;;10263550;28;20030;-84
2022/01/27 07:49:42;;;;;;;86.27;34.60;;;1.40;99.90;;;;;;10288960;28;20115;-83
2022/01/27 07:54:43;;;;;;;65.37;27.80;;;1.30;99.90;;;;;;10270453;28;20046;-84
2022/01/27 07:59:44;;;;;;;75.20;32.93;;;1.40;99.90;;;;;;10289134;28;20035;-85
2022/01/27 08:04:46;;;;;;;84.27;36.00;;;1.30;99.90;;;;;;10288282;28;20114;-83
2022/01/27 08:09:48;;;;;;;76.50;32.67;;;1.40;99.90;;;;;;10270147;28;20030;-84
2022/01/27 08:14:48;;;;;;;66.07;28.87;;;1.50;99.90;;;;;;10287272;28;20100;-85
2022/01/27 08:19:49;;;;;;;63.23;26.67;;;1.60;99.90;;;;;;10256808;28;20039;-85
2022/01/27 08:24:49;;;;;;;61.17;27.77;;;1.70;99.90;;;;;;10266701;28;20382;-84
2022/01/27 08:29:55;;;;;;;58.80;25.63;;;1.70;99.90;;;;;;10287552;28;20404;-88
2022/01/27 08:34:56;;;;;;;69.10;29.08;;;1.80;99.90;;;;;;10269754;28;20033;-84
2022/01/27 08:39:56;;;;;;;60.23;25.03;;;1.70;99.90;;;;;;10287178;28;20062;-87
2022/01/27 08:44:57;;;;;;;55.03;22.60;;;1.80;99.90;;;;;;10270239;28;20041;-85
2022/01/27 08:49:57;;;;;;;55.43;24.00;;;2.00;99.90;;;;;;10287107;28;20039;-85
2022/01/27 08:54:58;;;;;;;61.60;25.90;;;2.10;99.90;;;;;;10279998;28;20035;-85
2022/01/27 09:00:00;;;;;;;61.07;26.60;;;2.20;99.90;;;;;;10287086;28;20098;-84
2022/01/27 09:05:02;;;;;;;57.57;23.80;;;2.10;99.90;;;;;;10285369;28;20027;-85
2022/01/27 09:10:04;;;;;;;70.03;30.60;;;2.00;99.90;;;;;;10289909;28;20035;-85
2022/01/27 09:15:05;;;;;;;54.67;24.23;;;2.00;99.90;;;;;;10294865;28;20034;-85
2022/01/27 09:20:09;;;;;;;57.70;25.80;;;1.90;99.90;;;;;;10295029;28;20467;-85
2022/01/27 09:25:16;;;;;;;59.43;27.40;;;2.00;99.90;;;;;;10294676;28;20089;-84
2022/01/27 09:30:18;;;;;;;59.20;27.33;;;2.00;99.90;;;;;;10294809;28;20066;-86
2022/01/27 09:35:19;;;;;;;76.60;33.50;;;2.00;99.90;;;;;;10262983;28;20042;-84
2022/01/27 09:40:20;;;;;;;74.77;27.63;;;2.00;99.90;;;;;;10291796;28;20055;-83
2022/01/27 09:45:24;;;;;;;42.23;18.47;;;2.10;99.90;;;;;;10293734;28;20040;-85
2022/01/27 09:50:48;;;;;;;58.50;23.00;;;2.10;99.90;;;;;;10290287;28;20065;-84
2022/01/27 09:55:48;;;;;;;50.10;20.20;;;2.20;99.90;;;;;;10281965;28;20042;-84
2022/01/27 10:00:48;;;;;;;46.23;19.33;;;2.40;99.90;;;;;;10292945;28;20035;-84
2022/01/27 10:05:49;;;;;;;40.67;16.33;;;2.50;99.90;;;;;;10292926;28;20579;-86
2022/01/27 10:10:53;;;;;;;70.00;24.83;;;2.30;99.90;;;;;;10275456;28;20379;-83
2022/01/27 10:15:56;;;;;;;43.50;17.50;;;2.30;99.90;;;;;;10292886;28;20034;-86
2022/01/27 10:21:14;;;;;;;66.50;22.73;;;2.30;99.90;;;;;;10291568;28;20050;-84
2022/01/27 10:26:24;;;;;;;46.90;17.63;;;2.20;99.90;;;;;;10271158;28;20383;-84
2022/01/27 10:31:26;;;;;;;40.57;15.70;;;2.30;99.90;;;;;;10291628;28;20031;-84
2022/01/27 10:36:29;;;;;;;62.70;24.10;;;2.30;99.90;;;;;;10291535;28;20034;-83
2022/01/27 10:41:32;;;;;;;59.70;21.50;;;2.30;99.90;;;;;;10291962;28;20086;-85
2022/01/27 10:46:33;;;;;;;36.67;15.10;;;2.30;99.90;;;;;;10292174;28;20059;-84
2022/01/27 10:51:44;;;;;;;42.97;19.37;;;2.30;99.90;;;;;;10286737;28;20023;-83
2022/01/27 10:56:45;;;;;;;50.27;20.13;;;2.20;99.90;;;;;;10272205;28;20038;-83
2022/01/27 11:01:48;;;;;;;37.73;15.57;;;2.20;99.90;;;;;;10290770;28;20034;-84
2022/01/27 11:06:54;;;;;;;60.63;24.43;;;2.10;99.90;;;;;;10291240;28;20034;-84
2022/01/27 11:11:58;;;;;;;45.10;18.48;;;2.10;99.90;;;;;;10291663;28;20429;-85
2022/01/27 11:17:01;;;;;;;53.33;19.67;;;2.10;99.90;;;;;;10273408;28;20045;-84
2022/01/27 11:22:23;;;;;;;37.20;14.70;;;2.00;99.90;;;;;;10290290;28;20383;-85
2022/01/27 11:27:26;;;;;;;43.57;17.13;;;2.00;99.90;;;;;;10277983;28;20510;-84
2022/01/27 11:32:36;;;;;;;40.47;17.07;;;2.00;99.90;;;;;;10276492;28;20030;-84
2022/01/27 11:37:38;;;;;;;31.63;13.17;;;2.00;99.90;;;;;;10286174;28;20099;-84
2022/01/27 11:43:02;;;;;;;35.17;15.57;;;2.00;99.90;;;;;;10289869;28;20058;-84
2022/01/27 11:48:15;;;;;;;34.47;15.60;;;2.00;99.90;;;;;;10270923;28;20035;-84
2022/01/27 11:53:51;;;;;;;39.37;17.23;;;2.20;99.90;;;;;;10289154;28;20687;-83
2022/01/27 11:58:57;;;;;;;39.63;17.83;;;2.30;99.90;;;;;;10153795;29;20047;-84
2022/01/27 12:04:11;;;;;;;35.97;14.80;;;2.20;99.90;;;;;;10260147;28;20547;-84
2022/01/27 12:09:20;;;;;;;29.80;13.97;;;2.10;99.90;;;;;;10280937;28;20031;-82
2022/01/27 12:14:25;;;;;;;35.57;16.03;;;2.00;99.90;;;;;;10280908;28;20390;-84
2022/01/27 12:19:46;;;;;;;40.30;16.27;;;1.90;99.90;;;;;;10270590;28;20467;-83
2022/01/27 12:24:55;;;;;;;38.17;16.90;;;2.00;99.90;;;;;;10287998;28;20034;-84
2022/01/27 12:29:57;;;;;;;45.37;18.63;;;2.00;99.90;;;;;;10287989;28;20705;-84
2022/01/27 12:35:04;;;;;;;87.23;30.90;;;1.90;99.90;;;;;;10287853;28;20093;-83
2022/01/27 12:40:15;;;;;;;64.50;25.47;;;1.90;99.90;;;;;;10285899;28;20156;-84
2022/01/27 12:46:03;;;;;;;40.73;17.63;;;1.90;99.90;;;;;;10275851;28;20509;-84
2022/01/27 12:51:05;;;;;;;54.10;21.67;;;1.80;99.90;;;;;;10259054;28;20077;-84
2022/01/27 13:08:48;;;;;;;58.55;22.45;;;1.70;99.90;;;;;;10285450;28;20039;-84
2022/01/27 13:13:49;;;;;;;64.60;24.67;;;1.70;99.90;;;;;;10255112;28;20065;-84
2022/01/27 13:30:50;;;;;;;50.63;23.67;;;1.80;99.90;;;;;;10281512;28;20042;-85
2022/01/27 13:35:52;;;;;;;74.03;29.80;;;1.80;99.90;;;;;;10255619;28;20066;-87
2022/01/27 13:58:25;;;;;;;52.00;24.97;;;1.90;99.90;;;;;;10353598;23;20070;-86
2022/01/27 14:03:38;;;;;;;61.33;26.77;;;1.80;99.90;;;;;;10253131;28;20083;-86
2022/01/27 14:08:58;;;;;;;65.03;27.63;;;1.80;99.90;;;;;;10267449;28;20025;-86
2022/01/27 14:20:12;;;;;;;76.93;30.10;;;1.80;99.90;;;;;;10279993;28;20027;-86
2022/01/27 14:25:21;;;;;;;96.30;34.27;;;1.70;99.90;;;;;;10253289;28;20608;-84
2022/01/27 14:30:22;;;;;;;82.27;31.10;;;1.70;99.90;;;;;;10259053;28;20033;-85
2022/01/27 14:35:23;;;;;;;70.93;24.53;;;1.60;99.90;;;;;;10275443;28;20024;-85
2022/01/27 14:40:58;;;;;;;79.73;30.53;;;1.60;99.90;;;;;;10258820;28;20037;-85
2022/01/27 14:46:31;;;;;;;87.63;36.97;;;1.60;99.90;;;;;;10251975;28;20042;-85
2022/01/27 14:51:34;;;;;;;90.43;34.93;;;1.50;99.90;;;;;;10270056;28;20054;-85
2022/01/27 14:56:35;;;;;;;121.77;46.60;;;1.60;99.90;;;;;;10289360;28;20050;-85
2022/01/27 15:01:36;;;;;;;107.63;44.40;;;1.50;99.90;;;;;;10281439;28;20034;-84
2022/01/27 15:06:49;;;;;;;121.90;47.83;;;1.40;99.90;;;;;;10281879;28;20430;-85
2022/01/27 15:11:49;;;;;;;103.87;38.00;;;1.30;99.90;;;;;;10287983;28;20041;-85
2022/01/27 15:34:09;;;;;;;153.27;56.47;;;1.20;99.90;;;;;;10284621;28;19922;-85
2022/01/27 15:39:18;;;;;;;108.83;38.47;;;1.10;99.90;;;;;;10253942;28;20090;-86
2022/01/27 15:44:18;;;;;;;247.10;101.17;;;1.10;99.90;;;;;;10280851;28;20093;-86
2022/01/27 15:49:25;;;;;;;177.60;67.00;;;1.00;99.90;;;;;;10287827;28;20417;-86
2022/01/27 16:00:23;;;;;;;155.77;57.35;;;1.00;99.90;;;;;;10288900;28;20031;-86
2022/01/27 16:05:24;;;;;;;173.20;67.87;;;1.00;99.90;;;;;;10270820;28;20027;-87
2022/01/27 16:10:26;;;;;;;132.57;49.17;;;1.00;99.90;;;;;;10277597;28;20426;-85
2022/01/27 16:15:57;;;;;;;163.07;57.57;;;1.10;99.90;;;;;;10249880;28;20450;-86
2022/01/27 16:20:58;;;;;;;153.50;55.03;;;1.10;99.90;;;;;;10259544;28;20398;-82
2022/01/27 16:26:10;;;;;;;166.17;56.83;;;1.10;99.90;;;;;;10285902;28;20122;-86
2022/01/27 16:31:12;;;;;;;129.97;46.60;;;1.00;99.90;;;;;;10255693;28;20094;-87
2022/01/27 16:36:13;;;;;;;134.63;48.90;;;1.00;99.90;;;;;;10266204;28;20042;-90
2022/01/27 16:41:14;;;;;;;140.77;53.07;;;1.10;99.90;;;;;;10270217;28;20023;-86
2022/01/27 16:46:16;;;;;;;135.17;45.07;;;1.10;99.90;;;;;;10258385;28;20054;-84
2022/01/27 16:51:17;;;;;;;139.57;53.03;;;1.10;99.90;;;;;;10284410;28;20031;-83
2022/01/27 16:56:19;;;;;;;161.47;54.70;;;1.10;99.90;;;;;;10279761;28;20070;-82
2022/01/27 17:01:20;;;;;;;152.60;57.50;;;1.10;99.90;;;;;;10284228;28;20035;-86
2022/01/27 17:06:22;;;;;;;182.30;63.30;;;1.10;99.90;;;;;;10273760;28;20414;-86
2022/01/27 17:11:23;;;;;;;156.97;55.73;;;1.20;99.90;;;;;;10277483;28;20033;-85
2022/01/27 17:16:23;;;;;;;162.67;62.70;;;1.20;99.90;;;;;;10267751;28;20048;-84
2022/01/27 17:21:25;;;;;;;149.73;57.03;;;1.20;99.90;;;;;;10279428;28;20035;-84
2022/01/27 17:26:26;;;;;;;351.57;111.33;;;1.20;99.90;;;;;;10272522;28;20066;-84
2022/01/27 17:31:26;;;;;;;153.07;54.77;;;1.20;99.90;;;;;;10284909;28;20065;-85
2022/01/27 17:36:27;;;;;;;159.27;61.23;;;1.20;99.90;;;;;;10292779;28;20038;-86
2022/01/27 17:41:28;;;;;;;160.57;55.20;;;1.10;99.90;;;;;;10274517;28;20026;-85
2022/01/27 17:46:29;;;;;;;132.40;46.03;;;1.20;99.90;;;;;;10264867;28;20031;-86
2022/01/27 17:51:30;;;;;;;185.53;61.53;;;1.20;99.90;;;;;;10263702;28;20371;-85
2022/01/27 17:56:34;;;;;;;162.90;55.33;;;1.20;99.90;;;;;;10290459;28;20045;-84
2022/01/27 18:01:34;;;;;;;162.13;58.43;;;1.20;99.90;;;;;;10273719;28;20041;-85
2022/01/27 18:06:35;;;;;;;147.03;54.63;;;1.20;99.90;;;;;;10273334;28;20034;-84
2022/01/27 18:11:40;;;;;;;122.03;43.77;;;1.20;99.90;;;;;;10292092;28;20126;-85
2022/01/27 18:16:45;;;;;;;132.87;49.33;;;1.20;99.90;;;;;;10292175;28;20034;-84
2022/01/27 18:21:46;;;;;;;147.43;55.47;;;1.20;99.90;;;;;;10291091;28;20393;-87
2022/01/27 18:26:47;;;;;;;137.77;53.13;;;1.20;99.90;;;;;;10286053;28;20106;-85
2022/01/27 18:31:49;;;;;;;166.40;60.83;;;1.20;99.90;;;;;;10273917;28;20138;-83
2022/01/27 18:36:49;;;;;;;151.03;55.20;;;1.20;99.90;;;;;;10264088;28;20066;-87
2022/01/27 18:41:53;;;;;;;148.60;55.10;;;1.20;99.90;;;;;;10256491;28;20546;-85
2022/01/27 18:46:54;;;;;;;133.67;50.63;;;1.20;99.90;;;;;;10266712;28;20023;-87
2022/01/27 18:51:54;;;;;;;185.00;66.37;;;1.30;99.90;;;;;;10273577;28;20030;-88
2022/01/27 18:56:55;;;;;;;129.00;50.03;;;1.30;99.90;;;;;;10291021;28;20069;-87
2022/01/27 19:01:56;;;;;;;142.83;57.77;;;1.30;99.90;;;;;;10288231;28;20683;-86
2022/01/27 19:06:57;;;;;;;129.83;52.47;;;1.30;99.90;;;;;;10289282;28;20031;-85
2022/01/27 19:11:57;;;;;;;134.37;53.13;;;1.30;99.90;;;;;;10290153;28;20077;-85
2022/01/27 19:16:58;;;;;;;164.37;66.50;;;1.30;99.90;;;;;;10273189;28;20487;-91
2022/01/27 19:21:59;;;;;;;175.27;65.73;;;1.30;99.90;;;;;;10270551;28;20513;-86
2022/01/27 19:27:02;;;;;;;154.17;66.00;;;1.30;99.90;;;;;;10286993;28;20049;-86
2022/01/27 19:32:08;;;;;;;189.03;77.90;;;1.40;99.90;;;;;;10289653;28;20514;-85
2022/01/27 19:37:08;;;;;;;216.87;85.90;;;1.40;99.90;;;;;;10290194;28;20073;-85
2022/01/27 19:42:09;;;;;;;172.13;70.47;;;1.40;99.90;;;;;;10287728;28;20295;-86
2022/01/27 19:47:10;;;;;;;233.97;96.50;;;1.40;99.90;;;;;;10288711;28;20375;-85
2022/01/27 19:52:11;;;;;;;132.90;55.07;;;1.40;99.90;;;;;;10287532;28;20035;-86
2022/01/27 19:57:12;;;;;;;136.13;56.00;;;1.50;99.90;;;;;;10285652;28;20510;-86
2022/01/27 20:02:13;;;;;;;132.50;52.50;;;1.40;99.90;;;;;;10269363;28;20035;-86
2022/01/27 20:07:15;;;;;;;111.97;47.07;;;1.50;99.90;;;;;;10270918;28;20037;-86
2022/01/27 20:12:16;;;;;;;111.57;45.80;;;1.50;99.90;;;;;;10275167;28;20043;-86
2022/01/27 20:17:17;;;;;;;116.67;45.23;;;1.40;99.90;;;;;;10287285;28;20054;-87
2022/01/27 20:22:18;;;;;;;118.33;43.90;;;1.50;99.90;;;;;;10271447;28;20030;-87
2022/01/27 20:27:19;;;;;;;110.13;48.47;;;1.50;99.90;;;;;;10287213;28;20406;-86
2022/01/27 20:32:20;;;;;;;120.60;51.97;;;1.50;99.90;;;;;;10286326;28;20033;-86
2022/01/27 20:37:20;;;;;;;108.30;47.23;;;1.60;99.90;;;;;;10267940;28;20045;-86
2022/01/27 20:42:21;;;;;;;117.80;51.70;;;1.60;99.90;;;;;;10269716;28;20027;-87
2022/01/27 20:47:23;;;;;;;90.83;42.13;;;1.60;99.90;;;;;;10282881;28;20031;-86
2022/01/27 20:52:23;;;;;;;99.33;43.33;;;1.60;99.90;;;;;;10265186;28;20463;-85
2022/01/27 20:57:24;;;;;;;94.83;41.23;;;1.60;99.90;;;;;;10257453;28;20062;-86
2022/01/27 21:02:24;;;;;;;97.20;40.93;;;1.60;99.90;;;;;;10273195;28;20030;-85
2022/01/27 21:07:25;;;;;;;77.77;33.73;;;1.60;99.90;;;;;;10280892;28;20145;-85
2022/01/27 21:12:34;;;;;;;85.57;36.50;;;1.60;99.90;;;;;;10284843;28;20758;-85
2022/01/27 21:35:35;;;;;;;92.60;40.13;;;1.60;99.90;;;;;;10212228;28;20042;-84
2022/01/27 21:41:13;;;;;;;93.90;41.37;;;1.60;99.90;;;;;;10266969;28;20038;-85
2022/01/27 21:46:14;;;;;;;89.03;41.03;;;1.60;99.90;;;;;;10265864;28;20023;-86
2022/01/27 21:51:24;;;;;;;80.57;36.50;;;1.70;99.90;;;;;;10276559;28;20571;-86
2022/01/27 21:57:09;;;;;;;78.67;33.67;;;1.70;99.90;;;;;;10265254;28;20487;-84
2022/01/27 22:02:56;;;;;;;84.07;37.63;;;1.70;99.90;;;;;;10265478;28;20380;-86
2022/01/27 22:13:54;;;;;;;88.30;38.93;;;1.70;99.90;;;;;;10283258;28;20480;-85
2022/01/27 22:24:53;;;;;;;84.40;35.30;;;1.70;99.90;;;;;;10283841;28;20065;-86
2022/01/27 22:29:53;;;;;;;81.87;35.97;;;1.70;99.90;;;;;;10274165;28;20512;-86
2022/01/27 22:34:55;;;;;;;67.53;31.37;;;1.70;99.90;;;;;;10292479;28;20035;-85
2022/01/27 22:39:56;;;;;;;64.17;29.50;;;1.70;99.90;;;;;;10289776;28;20525;-85
2022/01/27 22:44:57;;;;;;;77.33;32.13;;;1.80;99.90;;;;;;10274025;28;20038;-85
2022/01/27 23:08:11;;;;;;;56.80;24.83;;;1.60;99.90;;;;;;10289193;28;20035;-85
2022/01/27 23:24:14;;;;;;;55.97;25.57;;;1.60;99.90;;;;;;10288543;28;20090;-84
2022/01/27 23:35:35;;;;;;;57.83;26.03;;;1.60;99.90;;;;;;10281369;28;20043;-84
